sensor_id;sensor_type;location;lat;lon;timestamp;pressure;altitude;pressure_sealevel;temperature;humidity
68197;BME280;55019;49.382;11.358;2023-03-22T00:01:09;96462.88;;;9.75;84.62
68197;BME280;55019;49.382;11.358;2023-03-22T00:03:35;96458.38;;;9.77;84.28
68197;BME280;55019;49.382;11.358;2023-03-22T00:06:01;96449.66;;;9.70;84.79
68197;BME280;55019;49.382;11.358;2023-03-22T00:08:29;96453.38;;;9.76;84.04
68197;BME280;55019;49.382;11.358;2023-03-22T00:10:55;96460.47;;;9.74;84.48
68197;BME280;55019;49.382;11.358;2023-03-22T00:13:20;96468.38;;;9.72;85.05
68197;BME280;55019;49.382;11.358;2023-03-22T00:15:46;96458.03;;;9.72;84.69
68197;BME280;55019;49.382;11.358;2023-03-22T00:18:17;96454.03;;;9.78;83.96
68197;BME280;55019;49.382;11.358;2023-03-22T00:20:54;96444.81;;;9.67;84.84
68197;BME280;55019;49.382;11.358;2023-03-22T00:23:21;96436.63;;;9.72;84.21
68197;BME280;55019;49.382;11.358;2023-03-22T00:25:47;96434.19;;;9.70;84.33
68197;BME280;55019;49.382;11.358;2023-03-22T00:28:13;96429.34;;;9.67;84.16
68197;BME280;55019;49.382;11.358;2023-03-22T00:30:40;96426.13;;;9.65;84.38
68197;BME280;55019;49.382;11.358;2023-03-22T00:33:07;96430.59;;;9.31;85.05
68197;BME280;55019;49.382;11.358;2023-03-22T00:35:33;96429.63;;;9.24;85.29
68197;BME280;55019;49.382;11.358;2023-03-22T00:37:59;96431.88;;;9.27;85.59
68197;BME280;55019;49.382;11.358;2023-03-22T00:40:31;96431.88;;;9.27;85.01
68197;BME280;55019;49.382;11.358;2023-03-22T00:42:58;96430.75;;;9.30;85.04
68197;BME280;55019;49.382;11.358;2023-03-22T00:45:26;96421.53;;;9.11;86.07
68197;BME280;55019;49.382;11.358;2023-03-22T00:47:51;96421.19;;;8.98;86.89
68197;BME280;55019;49.382;11.358;2023-03-22T00:50:17;96422.16;;;8.97;87.14
68197;BME280;55019;49.382;11.358;2023-03-22T00:52:43;96412.00;;;8.96;87.65
68197;BME280;55019;49.382;11.358;2023-03-22T00:55:09;96412.81;;;8.96;88.13
68197;BME280;55019;49.382;11.358;2023-03-22T00:57:35;96417.69;;;9.15;86.87
68197;BME280;55019;49.382;11.358;2023-03-22T01:00:02;96412.81;;;9.04;87.44
68197;BME280;55019;49.382;11.358;2023-03-22T01:02:41;96415.72;;;9.01;87.81
68197;BME280;55019;49.382;11.358;2023-03-22T01:05:11;96410.59;;;9.17;87.24
68197;BME280;55019;49.382;11.358;2023-03-22T01:07:41;96412.53;;;9.23;86.47
68197;BME280;55019;49.382;11.358;2023-03-22T01:10:09;96404.31;;;9.20;87.13
68197;BME280;55019;49.382;11.358;2023-03-22T01:12:37;96401.38;;;9.15;87.07
68197;BME280;55019;49.382;11.358;2023-03-22T01:15:04;96402.84;;;9.09;87.01
68197;BME280;55019;49.382;11.358;2023-03-22T01:17:30;96404.16;;;9.21;87.25
68197;BME280;55019;49.382;11.358;2023-03-22T01:19:56;96409.63;;;9.26;86.82
68197;BME280;55019;49.382;11.358;2023-03-22T01:22:22;96399.97;;;9.20;86.51
68197;BME280;55019;49.382;11.358;2023-03-22T01:24:48;96396.88;;;9.09;87.22
68197;BME280;55019;49.382;11.358;2023-03-22T01:27:15;96403.81;;;9.16;86.69
68197;BME280;55019;49.382;11.358;2023-03-22T01:29:41;96388.03;;;9.19;86.53
68197;BME280;55019;49.382;11.358;2023-03-22T01:32:07;96398.00;;;9.06;86.71
68197;BME280;55019;49.382;11.358;2023-03-22T01:34:33;96385.13;;;8.98;86.77
68197;BME280;55019;49.382;11.358;2023-03-22T01:37:00;96393.44;;;8.92;87.07
68197;BME280;55019;49.382;11.358;2023-03-22T01:39:26;96383.13;;;8.84;87.04
68197;BME280;55019;49.382;11.358;2023-03-22T01:41:55;96389.25;;;8.83;87.44
68197;BME280;55019;49.382;11.358;2023-03-22T01:44:22;96380.19;;;8.71;87.61
68197;BME280;55019;49.382;11.358;2023-03-22T01:46:50;96381.53;;;8.91;87.56
68197;BME280;55019;49.382;11.358;2023-03-22T01:49:28;96381.50;;;8.83;86.88
68197;BME280;55019;49.382;11.358;2023-03-22T01:52:01;96381.78;;;8.64;87.48
68197;BME280;55019;49.382;11.358;2023-03-22T01:54:49;96375.22;;;8.70;86.89
68197;BME280;55019;49.382;11.358;2023-03-22T01:57:41;96368.72;;;8.58;87.69
68197;BME280;55019;49.382;11.358;2023-03-22T02:00:14;96365.97;;;8.52;87.69
68197;BME280;55019;49.382;11.358;2023-03-22T02:03:00;96376.50;;;8.33;88.18
68197;BME280;55019;49.382;11.358;2023-03-22T02:05:37;96355.41;;;8.29;87.70
68197;BME280;55019;49.382;11.358;2023-03-22T02:08:09;96356.19;;;8.30;87.92
68197;BME280;55019;49.382;11.358;2023-03-22T02:11:00;96350.25;;;8.29;87.64
68197;BME280;55019;49.382;11.358;2023-03-22T02:22:26;96366.31;;;7.98;88.23
68197;BME280;55019;49.382;11.358;2023-03-22T02:29:03;96354.72;;;7.94;88.97
68197;BME280;55019;49.382;11.358;2023-03-22T02:31:17;96363.78;;;7.80;89.12
68197;BME280;55019;49.382;11.358;2023-03-22T02:47:08;96346.59;;;7.81;91.45
68197;BME280;55019;49.382;11.358;2023-03-22T02:50:39;96361.25;;;7.88;91.68
68197;BME280;55019;49.382;11.358;2023-03-22T02:52:38;96353.91;;;7.93;91.81
68197;BME280;55019;49.382;11.358;2023-03-22T02:58:26;96356.34;;;7.95;91.62
68197;BME280;55019;49.382;11.358;2023-03-22T03:00:57;96356.03;;;7.98;92.07
68197;BME280;55019;49.382;11.358;2023-03-22T03:03:27;96345.75;;;7.98;92.02
68197;BME280;55019;49.382;11.358;2023-03-22T03:05:58;96333.69;;;8.06;91.29
68197;BME280;55019;49.382;11.358;2023-03-22T03:08:27;96343.06;;;8.15;90.88
68197;BME280;55019;49.382;11.358;2023-03-22T03:10:55;96344.81;;;8.07;90.91
68197;BME280;55019;49.382;11.358;2023-03-22T03:13:21;96344.19;;;8.13;90.17
68197;BME280;55019;49.382;11.358;2023-03-22T03:15:52;96341.13;;;8.09;89.98
68197;BME280;55019;49.382;11.358;2023-03-22T03:24:01;96350.63;;;8.09;90.84
68197;BME280;55019;49.382;11.358;2023-03-22T03:29:30;96352.97;;;8.02;90.62
68197;BME280;55019;49.382;11.358;2023-03-22T03:32:05;96344.72;;;7.91;91.60
68197;BME280;55019;49.382;11.358;2023-03-22T03:34:46;96342.00;;;7.67;90.79
68197;BME280;55019;49.382;11.358;2023-03-22T03:37:18;96342.69;;;7.77;90.97
68197;BME280;55019;49.382;11.358;2023-03-22T03:40:10;96348.81;;;7.76;90.29
68197;BME280;55019;49.382;11.358;2023-03-22T03:42:41;96353.09;;;7.67;90.00
68197;BME280;55019;49.382;11.358;2023-03-22T03:45:08;96349.38;;;7.44;90.27
68197;BME280;55019;49.382;11.358;2023-03-22T03:47:36;96347.03;;;7.51;90.29
68197;BME280;55019;49.382;11.358;2023-03-22T03:50:06;96343.50;;;7.52;89.61
68197;BME280;55019;49.382;11.358;2023-03-22T03:52:33;96353.75;;;7.26;90.40
68197;BME280;55019;49.382;11.358;2023-03-22T03:54:58;96357.56;;;7.22;90.54
68197;BME280;55019;49.382;11.358;2023-03-22T03:57:29;96364.69;;;6.94;90.95
68197;BME280;55019;49.382;11.358;2023-03-22T03:59:55;96355.59;;;6.99;91.72
68197;BME280;55019;49.382;11.358;2023-03-22T04:02:43;96364.38;;;6.97;92.27
68197;BME280;55019;49.382;11.358;2023-03-22T04:05:20;96363.03;;;6.75;92.45
68197;BME280;55019;49.382;11.358;2023-03-22T04:07:45;96358.72;;;6.76;92.63
68197;BME280;55019;49.382;11.358;2023-03-22T04:10:11;96351.59;;;6.87;92.12
68197;BME280;55019;49.382;11.358;2023-03-22T04:12:37;96354.75;;;6.81;91.86
68197;BME280;55019;49.382;11.358;2023-03-22T04:15:15;96353.94;;;6.63;91.77
68197;BME280;55019;49.382;11.358;2023-03-22T04:17:44;96367.09;;;6.78;91.82
68197;BME280;55019;49.382;11.358;2023-03-22T04:20:12;96366.56;;;6.74;91.88
68197;BME280;55019;49.382;11.358;2023-03-22T04:22:40;96365.16;;;6.62;92.02
68197;BME280;55019;49.382;11.358;2023-03-22T04:25:11;96372.09;;;6.52;91.76
68197;BME280;55019;49.382;11.358;2023-03-22T04:27:41;96362.31;;;6.38;93.11
68197;BME280;55019;49.382;11.358;2023-03-22T04:30:13;96366.66;;;6.28;94.36
68197;BME280;55019;49.382;11.358;2023-03-22T04:33:15;96361.84;;;6.52;93.00
68197;BME280;55019;49.382;11.358;2023-03-22T04:36:01;96369.44;;;6.44;93.65
68197;BME280;55019;49.382;11.358;2023-03-22T04:38:35;96367.84;;;6.43;93.87
68197;BME280;55019;49.382;11.358;2023-03-22T04:41:05;96360.69;;;6.37;93.20
68197;BME280;55019;49.382;11.358;2023-03-22T04:43:42;96366.75;;;6.36;94.45
68197;BME280;55019;49.382;11.358;2023-03-22T04:46:13;96375.91;;;6.48;96.24
68197;BME280;55019;49.382;11.358;2023-03-22T04:48:47;96364.25;;;6.54;96.00
68197;BME280;55019;49.382;11.358;2023-03-22T04:51:14;96357.75;;;6.59;95.54
68197;BME280;55019;49.382;11.358;2023-03-22T04:53:50;96363.81;;;6.58;95.88
68197;BME280;55019;49.382;11.358;2023-03-22T04:56:16;96360.50;;;6.48;96.07
68197;BME280;55019;49.382;11.358;2023-03-22T04:58:43;96356.13;;;6.58;95.09
68197;BME280;55019;49.382;11.358;2023-03-22T05:01:13;96359.50;;;6.76;94.77
68197;BME280;55019;49.382;11.358;2023-03-22T05:03:42;96356.94;;;6.76;93.71
68197;BME280;55019;49.382;11.358;2023-03-22T05:06:10;96360.53;;;6.83;92.65
68197;BME280;55019;49.382;11.358;2023-03-22T05:08:46;96349.94;;;6.51;93.60
68197;BME280;55019;49.382;11.358;2023-03-22T05:11:16;96356.75;;;6.43;93.95
68197;BME280;55019;49.382;11.358;2023-03-22T05:13:53;96352.44;;;6.43;94.07
68197;BME280;55019;49.382;11.358;2023-03-22T05:16:23;96348.38;;;6.41;93.76
68197;BME280;55019;49.382;11.358;2023-03-22T05:18:50;96356.69;;;6.52;94.19
68197;BME280;55019;49.382;11.358;2023-03-22T05:21:21;96353.50;;;6.41;95.10
68197;BME280;55019;49.382;11.358;2023-03-22T05:23:57;96354.09;;;6.35;95.61
68197;BME280;55019;49.382;11.358;2023-03-22T05:26:24;96357.19;;;6.38;95.77
68197;BME280;55019;49.382;11.358;2023-03-22T05:28:52;96364.59;;;6.41;95.44
68197;BME280;55019;49.382;11.358;2023-03-22T05:31:27;96362.56;;;6.35;95.98
68197;BME280;55019;49.382;11.358;2023-03-22T05:34:00;96361.31;;;6.49;95.95
68197;BME280;55019;49.382;11.358;2023-03-22T05:36:28;96362.88;;;6.59;95.66
68197;BME280;55019;49.382;11.358;2023-03-22T05:39:09;96361.25;;;6.58;94.57
68197;BME280;55019;49.382;11.358;2023-03-22T05:41:34;96361.50;;;6.65;94.69
68197;BME280;55019;49.382;11.358;2023-03-22T05:44:00;96356.06;;;6.68;94.75
68197;BME280;55019;49.382;11.358;2023-03-22T05:46:26;96360.19;;;6.78;93.71
68197;BME280;55019;49.382;11.358;2023-03-22T05:49:15;96362.81;;;6.86;93.59
68197;BME280;55019;49.382;11.358;2023-03-22T05:51:41;96358.94;;;6.82;93.37
68197;BME280;55019;49.382;11.358;2023-03-22T05:54:10;96358.13;;;6.82;93.32
68197;BME280;55019;49.382;11.358;2023-03-22T05:56:41;96372.97;;;6.88;93.00
68197;BME280;55019;49.382;11.358;2023-03-22T05:59:09;96368.06;;;6.94;92.71
68197;BME280;55019;49.382;11.358;2023-03-22T06:01:35;96357.03;;;6.84;93.14
68197;BME280;55019;49.382;11.358;2023-03-22T06:04:20;96355.59;;;6.99;92.61
68197;BME280;55019;49.382;11.358;2023-03-22T06:06:53;96350.09;;;6.94;92.28
68197;BME280;55019;49.382;11.358;2023-03-22T06:09:32;96352.72;;;7.19;91.37
68197;BME280;55019;49.382;11.358;2023-03-22T06:11:59;96342.59;;;7.18;90.55
68197;BME280;55019;49.382;11.358;2023-03-22T06:14:26;96347.78;;;7.26;90.32
68197;BME280;55019;49.382;11.358;2023-03-22T06:17:12;96349.69;;;7.24;90.67
68197;BME280;55019;49.382;11.358;2023-03-22T06:19:38;96351.97;;;7.27;90.59
68197;BME280;55019;49.382;11.358;2023-03-22T06:22:05;96353.88;;;7.25;90.80
68197;BME280;55019;49.382;11.358;2023-03-22T06:24:35;96356.91;;;7.20;90.88
68197;BME280;55019;49.382;11.358;2023-03-22T06:27:05;96353.66;;;7.36;90.66
68197;BME280;55019;49.382;11.358;2023-03-22T06:29:32;96361.34;;;7.53;89.99
68197;BME280;55019;49.382;11.358;2023-03-22T06:32:01;96350.97;;;7.63;89.18
68197;BME280;55019;49.382;11.358;2023-03-22T06:34:28;96337.81;;;7.66;88.79
68197;BME280;55019;49.382;11.358;2023-03-22T06:37:02;96342.59;;;7.61;88.61
68197;BME280;55019;49.382;11.358;2023-03-22T06:39:43;96327.78;;;7.55;88.55
68197;BME280;55019;49.382;11.358;2023-03-22T06:42:13;96341.09;;;7.76;89.26
68197;BME280;55019;49.382;11.358;2023-03-22T06:44:40;96349.81;;;7.83;88.96
68197;BME280;55019;49.382;11.358;2023-03-22T06:47:13;96342.81;;;7.93;89.28
68197;BME280;55019;49.382;11.358;2023-03-22T06:49:39;96357.94;;;8.21;88.40
68197;BME280;55019;49.382;11.358;2023-03-22T06:52:07;96351.69;;;8.24;87.69
68197;BME280;55019;49.382;11.358;2023-03-22T06:54:33;96349.47;;;8.37;87.55
68197;BME280;55019;49.382;11.358;2023-03-22T06:56:59;96355.09;;;8.32;87.05
68197;BME280;55019;49.382;11.358;2023-03-22T06:59:26;96342.47;;;8.47;87.21
68197;BME280;55019;49.382;11.358;2023-03-22T07:01:52;96341.53;;;8.56;86.91
68197;BME280;55019;49.382;11.358;2023-03-22T07:04:17;96336.22;;;8.65;86.83
68197;BME280;55019;49.382;11.358;2023-03-22T07:06:46;96340.25;;;8.67;86.38
68197;BME280;55019;49.382;11.358;2023-03-22T07:09:11;96343.69;;;8.84;86.12
68197;BME280;55019;49.382;11.358;2023-03-22T07:11:37;96347.63;;;9.20;84.90
68197;BME280;55019;49.382;11.358;2023-03-22T07:14:03;96340.69;;;9.20;84.07
68197;BME280;55019;49.382;11.358;2023-03-22T07:16:47;96331.31;;;9.19;84.83
68197;BME280;55019;49.382;11.358;2023-03-22T07:19:15;96337.28;;;9.52;83.99
68197;BME280;55019;49.382;11.358;2023-03-22T07:21:42;96339.06;;;9.43;83.56
68197;BME280;55019;49.382;11.358;2023-03-22T07:24:10;96341.59;;;9.83;82.48
68197;BME280;55019;49.382;11.358;2023-03-22T07:26:37;96346.56;;;10.16;81.32
68197;BME280;55019;49.382;11.358;2023-03-22T07:29:04;96342.91;;;10.03;80.45
68197;BME280;55019;49.382;11.358;2023-03-22T07:31:31;96345.34;;;10.43;79.32
68197;BME280;55019;49.382;11.358;2023-03-22T07:34:03;96357.16;;;10.76;78.15
68197;BME280;55019;49.382;11.358;2023-03-22T07:36:35;96350.09;;;11.23;76.39
68197;BME280;55019;49.382;11.358;2023-03-22T07:39:03;96355.97;;;11.61;74.65
68197;BME280;55019;49.382;11.358;2023-03-22T07:41:36;96357.28;;;11.94;72.66
68197;BME280;55019;49.382;11.358;2023-03-22T07:44:40;96356.28;;;11.81;70.47
68197;BME280;55019;49.382;11.358;2023-03-22T07:47:18;96355.41;;;11.43;71.69
68197;BME280;55019;49.382;11.358;2023-03-22T07:49:57;96366.06;;;11.71;71.02
68197;BME280;55019;49.382;11.358;2023-03-22T07:52:29;96357.03;;;11.44;72.85
68197;BME280;55019;49.382;11.358;2023-03-22T07:54:57;96356.19;;;11.74;72.56
68197;BME280;55019;49.382;11.358;2023-03-22T07:57:23;96342.81;;;11.85;70.54
68197;BME280;55019;49.382;11.358;2023-03-22T07:59:55;96343.84;;;12.28;67.75
68197;BME280;55019;49.382;11.358;2023-03-22T08:02:26;96343.91;;;12.49;66.39
68197;BME280;55019;49.382;11.358;2023-03-22T08:04:54;96342.50;;;12.96;64.57
68197;BME280;55019;49.382;11.358;2023-03-22T08:07:41;96340.69;;;13.11;62.41
68197;BME280;55019;49.382;11.358;2023-03-22T08:10:08;96340.06;;;13.09;61.88
68197;BME280;55019;49.382;11.358;2023-03-22T08:12:34;96342.47;;;13.10;60.89
68197;BME280;55019;49.382;11.358;2023-03-22T08:15:15;96346.91;;;12.96;62.31
68197;BME280;55019;49.382;11.358;2023-03-22T08:17:42;96345.75;;;13.61;61.08
68197;BME280;55019;49.382;11.358;2023-03-22T08:20:14;96343.78;;;13.42;57.78
68197;BME280;55019;49.382;11.358;2023-03-22T08:22:47;96349.53;;;13.37;57.68
68197;BME280;55019;49.382;11.358;2023-03-22T08:25:25;96342.13;;;13.55;56.69
68197;BME280;55019;49.382;11.358;2023-03-22T08:27:56;96334.75;;;13.38;56.62
68197;BME280;55019;49.382;11.358;2023-03-22T08:30:25;96338.41;;;13.43;56.69
68197;BME280;55019;49.382;11.358;2023-03-22T08:32:52;96340.34;;;13.83;54.86
68197;BME280;55019;49.382;11.358;2023-03-22T08:35:18;96328.22;;;13.63;54.06
68197;BME280;55019;49.382;11.358;2023-03-22T08:37:44;96328.97;;;13.57;54.93
68197;BME280;55019;49.382;11.358;2023-03-22T08:40:10;96331.03;;;13.68;54.12
68197;BME280;55019;49.382;11.358;2023-03-22T08:42:40;96334.41;;;13.62;55.27
68197;BME280;55019;49.382;11.358;2023-03-22T08:45:07;96337.44;;;14.20;52.66
68197;BME280;55019;49.382;11.358;2023-03-22T08:47:38;96324.53;;;14.33;52.00
68197;BME280;55019;49.382;11.358;2023-03-22T08:50:08;96326.16;;;14.07;52.03
68197;BME280;55019;49.382;11.358;2023-03-22T08:52:43;96320.19;;;14.13;52.07
68197;BME280;55019;49.382;11.358;2023-03-22T08:55:20;96308.97;;;14.40;52.08
68197;BME280;55019;49.382;11.358;2023-03-22T08:58:06;96328.53;;;14.82;51.12
68197;BME280;55019;49.382;11.358;2023-03-22T09:01:10;96319.53;;;15.64;48.87
68197;BME280;55019;49.382;11.358;2023-03-22T09:03:57;96309.28;;;15.95;49.45
68197;BME280;55019;49.382;11.358;2023-03-22T09:06:23;96303.81;;;16.42;48.07
68197;BME280;55019;49.382;11.358;2023-03-22T09:08:51;96311.00;;;16.59;47.00
68197;BME280;55019;49.382;11.358;2023-03-22T09:11:20;96296.63;;;16.37;46.50
68197;BME280;55019;49.382;11.358;2023-03-22T09:13:47;96324.94;;;16.08;47.32
68197;BME280;55019;49.382;11.358;2023-03-22T09:16:14;96318.28;;;16.25;46.57
68197;BME280;55019;49.382;11.358;2023-03-22T09:18:42;96308.69;;;16.12;47.48
68197;BME280;55019;49.382;11.358;2023-03-22T09:21:16;96296.69;;;15.34;47.92
68197;BME280;55019;49.382;11.358;2023-03-22T09:23:55;96299.91;;;15.36;47.52
68197;BME280;55019;49.382;11.358;2023-03-22T09:26:27;96315.31;;;15.31;47.80
68197;BME280;55019;49.382;11.358;2023-03-22T09:28:53;96305.25;;;15.21;47.34
68197;BME280;55019;49.382;11.358;2023-03-22T09:31:19;96303.50;;;15.41;47.36
68197;BME280;55019;49.382;11.358;2023-03-22T09:33:46;96311.50;;;15.46;48.22
68197;BME280;55019;49.382;11.358;2023-03-22T09:36:12;96304.88;;;15.37;47.93
68197;BME280;55019;49.382;11.358;2023-03-22T09:38:39;96296.31;;;15.69;47.00
68197;BME280;55019;49.382;11.358;2023-03-22T09:41:10;96294.69;;;15.55;47.02
68197;BME280;55019;49.382;11.358;2023-03-22T09:43:41;96300.69;;;15.94;46.10
68197;BME280;55019;49.382;11.358;2023-03-22T09:46:15;96290.59;;;16.43;45.38
68197;BME280;55019;49.382;11.358;2023-03-22T09:48:43;96294.50;;;15.76;46.85
68197;BME280;55019;49.382;11.358;2023-03-22T09:51:32;96281.38;;;16.28;44.90
68197;BME280;55019;49.382;11.358;2023-03-22T09:54:01;96289.06;;;16.10;45.05
68197;BME280;55019;49.382;11.358;2023-03-22T09:56:29;96287.38;;;16.28;45.51
68197;BME280;55019;49.382;11.358;2023-03-22T10:07:04;96287.84;;;17.13;43.64
68197;BME280;55019;49.382;11.358;2023-03-22T10:09:56;96281.97;;;17.79;42.85
68197;BME280;55019;49.382;11.358;2023-03-22T10:12:27;96286.22;;;17.98;41.77
68197;BME280;55019;49.382;11.358;2023-03-22T10:15:16;96277.44;;;17.07;43.90
68197;BME280;55019;49.382;11.358;2023-03-22T10:17:54;96276.53;;;18.59;42.25
68197;BME280;55019;49.382;11.358;2023-03-22T10:20:48;96266.06;;;18.23;40.97
68197;BME280;55019;49.382;11.358;2023-03-22T10:23:20;96279.47;;;17.66;42.37
68197;BME280;55019;49.382;11.358;2023-03-22T10:25:49;96270.16;;;16.21;44.99
68197;BME280;55019;49.382;11.358;2023-03-22T10:28:20;96272.06;;;15.62;46.60
68197;BME280;55019;49.382;11.358;2023-03-22T10:30:51;96262.84;;;16.62;45.62
68197;BME280;55019;49.382;11.358;2023-03-22T10:36:21;96260.00;;;17.87;42.62
68197;BME280;55019;49.382;11.358;2023-03-22T10:38:52;96257.47;;;18.41;41.04
68197;BME280;55019;49.382;11.358;2023-03-22T10:41:21;96246.03;;;18.35;41.35
68197;BME280;55019;49.382;11.358;2023-03-22T10:43:54;96251.78;;;18.01;42.01
68197;BME280;55019;49.382;11.358;2023-03-22T10:46:24;96246.31;;;17.85;43.31
68197;BME280;55019;49.382;11.358;2023-03-22T10:48:56;96247.53;;;17.64;42.05
68197;BME280;55019;49.382;11.358;2023-03-22T10:51:29;96243.25;;;18.12;41.91
68197;BME280;55019;49.382;11.358;2023-03-22T10:53:58;96247.31;;;19.62;41.01
68197;BME280;55019;49.382;11.358;2023-03-22T10:56:25;96234.22;;;20.08;38.13
68197;BME280;55019;49.382;11.358;2023-03-22T10:58:54;96229.72;;;20.42;37.85
68197;BME280;55019;49.382;11.358;2023-03-22T11:01:33;96236.63;;;20.21;37.18
68197;BME280;55019;49.382;11.358;2023-03-22T11:04:11;96240.03;;;18.82;39.06
68197;BME280;55019;49.382;11.358;2023-03-22T11:06:49;96243.16;;;19.20;38.31
68197;BME280;55019;49.382;11.358;2023-03-22T11:09:18;96238.03;;;19.25;39.21
68197;BME280;55019;49.382;11.358;2023-03-22T11:11:48;96235.47;;;19.94;37.97
68197;BME280;55019;49.382;11.358;2023-03-22T11:14:19;96220.41;;;19.02;38.46
68197;BME280;55019;49.382;11.358;2023-03-22T11:16:54;96231.16;;;19.88;37.41
68197;BME280;55019;49.382;11.358;2023-03-22T11:19:32;96225.69;;;20.24;35.63
68197;BME280;55019;49.382;11.358;2023-03-22T11:22:00;96220.09;;;20.09;37.52
68197;BME280;55019;49.382;11.358;2023-03-22T11:24:30;96222.44;;;20.44;36.04
68197;BME280;55019;49.382;11.358;2023-03-22T11:27:07;96214.59;;;21.00;35.65
68197;BME280;55019;49.382;11.358;2023-03-22T11:29:45;96207.91;;;21.54;34.38
68197;BME280;55019;49.382;11.358;2023-03-22T11:32:33;96203.56;;;20.20;34.84
68197;BME280;55019;49.382;11.358;2023-03-22T11:37:46;96209.13;;;21.02;36.88
68197;BME280;55019;49.382;11.358;2023-03-22T11:40:33;96200.22;;;20.63;36.81
68197;BME280;55019;49.382;11.358;2023-03-22T11:43:12;96188.97;;;22.70;34.74
68197;BME280;55019;49.382;11.358;2023-03-22T11:45:41;96193.06;;;21.31;34.32
68197;BME280;55019;49.382;11.358;2023-03-22T11:48:14;96197.59;;;20.36;34.64
68197;BME280;55019;49.382;11.358;2023-03-22T11:50:42;96200.56;;;18.95;37.16
68197;BME280;55019;49.382;11.358;2023-03-22T11:53:16;96189.47;;;18.70;38.18
68197;BME280;55019;49.382;11.358;2023-03-22T11:55:43;96190.50;;;18.51;39.20
68197;BME280;55019;49.382;11.358;2023-03-22T11:58:27;96179.97;;;19.28;37.10
68197;BME280;55019;49.382;11.358;2023-03-22T12:00:57;96191.34;;;19.22;38.24
68197;BME280;55019;49.382;11.358;2023-03-22T12:03:31;96187.03;;;19.73;37.42
68197;BME280;55019;49.382;11.358;2023-03-22T12:06:01;96181.88;;;20.13;36.21
68197;BME280;55019;49.382;11.358;2023-03-22T12:08:57;96170.97;;;20.04;36.41
68197;BME280;55019;49.382;11.358;2023-03-22T12:11:35;96174.84;;;18.92;38.00
68197;BME280;55019;49.382;11.358;2023-03-22T12:14:09;96173.66;;;19.17;38.48
68197;BME280;55019;49.382;11.358;2023-03-22T12:16:46;96174.59;;;19.92;36.69
68197;BME280;55019;49.382;11.358;2023-03-22T12:22:12;96170.53;;;20.74;35.78
68197;BME280;55019;49.382;11.358;2023-03-22T12:24:38;96172.56;;;19.71;35.56
68197;BME280;55019;49.382;11.358;2023-03-22T12:27:28;96177.69;;;19.89;36.59
68197;BME280;55019;49.382;11.358;2023-03-22T12:32:47;96162.00;;;20.28;36.18
68197;BME280;55019;49.382;11.358;2023-03-22T12:35:18;96154.88;;;19.20;36.76
68197;BME280;55019;49.382;11.358;2023-03-22T12:37:48;96167.88;;;19.84;35.18
68197;BME280;55019;49.382;11.358;2023-03-22T12:40:36;96160.16;;;19.78;34.91
68197;BME280;55019;49.382;11.358;2023-03-22T12:43:15;96155.50;;;20.31;36.58
68197;BME280;55019;49.382;11.358;2023-03-22T12:45:51;96161.66;;;19.10;37.08
68197;BME280;55019;49.382;11.358;2023-03-22T12:50:59;96157.16;;;18.76;36.63
68197;BME280;55019;49.382;11.358;2023-03-22T12:53:33;96154.44;;;19.23;36.04
68197;BME280;55019;49.382;11.358;2023-03-22T12:55:59;96150.88;;;20.10;34.59
68197;BME280;55019;49.382;11.358;2023-03-22T12:58:26;96137.81;;;19.29;34.67
68197;BME280;55019;49.382;11.358;2023-03-22T13:00:56;96143.84;;;19.53;35.35
68197;BME280;55019;49.382;11.358;2023-03-22T13:06:04;96137.03;;;20.53;32.21
68197;BME280;55019;49.382;11.358;2023-03-22T13:11:35;96140.13;;;20.23;32.02
68197;BME280;55019;49.382;11.358;2023-03-22T13:14:01;96136.69;;;20.22;31.96
68197;BME280;55019;49.382;11.358;2023-03-22T13:16:51;96135.66;;;19.38;33.44
68197;BME280;55019;49.382;11.358;2023-03-22T13:19:29;96135.34;;;19.05;34.04
68197;BME280;55019;49.382;11.358;2023-03-22T13:22:18;96136.44;;;19.50;34.40
68197;BME280;55019;49.382;11.358;2023-03-22T13:25:11;96135.41;;;18.64;34.21
68197;BME280;55019;49.382;11.358;2023-03-22T13:32:54;96129.00;;;19.12;33.16
68197;BME280;55019;49.382;11.358;2023-03-22T13:36:41;96139.03;;;18.63;33.38
68197;BME280;55019;49.382;11.358;2023-03-22T13:38:39;96136.03;;;19.12;32.08
68197;BME280;55019;49.382;11.358;2023-03-22T13:41:28;96123.06;;;19.05;31.69
68197;BME280;55019;49.382;11.358;2023-03-22T13:43:57;96120.53;;;18.76;32.15
68197;BME280;55019;49.382;11.358;2023-03-22T13:51:31;96124.38;;;17.61;35.44
68197;BME280;55019;49.382;11.358;2023-03-22T13:54:19;96126.94;;;17.67;35.79
68197;BME280;55019;49.382;11.358;2023-03-22T13:56:56;96116.09;;;18.00;35.71
68197;BME280;55019;49.382;11.358;2023-03-22T14:04:57;96110.16;;;18.40;33.51
68197;BME280;55019;49.382;11.358;2023-03-22T14:07:39;96105.63;;;18.47;32.59
68197;BME280;55019;49.382;11.358;2023-03-22T14:10:36;96101.91;;;18.25;33.68
68197;BME280;55019;49.382;11.358;2023-03-22T14:13:20;96099.88;;;19.20;34.23
68197;BME280;55019;49.382;11.358;2023-03-22T14:15:54;96084.91;;;18.75;33.71
68197;BME280;55019;49.382;11.358;2023-03-22T14:18:29;96098.41;;;19.36;34.19
68197;BME280;55019;49.382;11.358;2023-03-22T14:21:08;96089.28;;;20.24;34.20
68197;BME280;55019;49.382;11.358;2023-03-22T14:23:36;96088.94;;;20.64;33.56
68197;BME280;55019;49.382;11.358;2023-03-22T14:26:07;96087.72;;;21.16;31.67
68197;BME280;55019;49.382;11.358;2023-03-22T14:28:38;96093.38;;;20.92;31.75
68197;BME280;55019;49.382;11.358;2023-03-22T14:31:13;96090.44;;;19.31;31.82
68197;BME280;55019;49.382;11.358;2023-03-22T14:33:41;96078.22;;;18.20;32.80
68197;BME280;55019;49.382;11.358;2023-03-22T14:36:12;96077.94;;;18.10;33.71
68197;BME280;55019;49.382;11.358;2023-03-22T14:38:41;96080.56;;;18.28;32.44
68197;BME280;55019;49.382;11.358;2023-03-22T14:41:15;96082.56;;;18.56;32.98
68197;BME280;55019;49.382;11.358;2023-03-22T14:43:44;96073.34;;;18.53;32.80